createdAt,value
2023-04-15T04:01:08.885Z,7.14
2023-04-15T04:05:11.582Z,7.19
2023-04-15T04:09:14.114Z,7.13
2023-04-15T04:13:17.093Z,7.05
2023-04-15T04:17:21.033Z,7.09
2023-04-15T04:21:23.700Z,7.07
2023-04-15T04:25:27.291Z,7.21
2023-04-15T04:29:29.810Z,7.07
2023-04-15T04:33:33.798Z,7.09
2023-04-15T04:37:36.856Z,6.99
2023-04-15T04:41:39.376Z,7.00
2023-04-15T04:45:41.949Z,6.98
2023-04-15T04:49:45.831Z,6.92
2023-04-15T04:53:48.396Z,7.01
2023-04-15T04:57:51.406Z,6.95
2023-04-15T05:01:54.021Z,7.01
2023-04-15T05:05:58.041Z,7.03
2023-04-15T05:10:00.546Z,6.93
2023-04-15T05:14:03.145Z,6.97
2023-04-15T05:18:05.814Z,7.03
2023-04-15T05:22:09.932Z,7.00
2023-04-15T05:26:12.480Z,7.01
2023-04-15T05:30:15.991Z,7.02
2023-04-15T05:34:18.558Z,7.01
2023-04-15T05:38:22.473Z,7.07
2023-04-15T05:42:25.032Z,7.10
2023-04-15T05:46:27.653Z,7.14
2023-04-15T05:50:30.581Z,7.19
2023-04-15T05:54:34.458Z,7.12
2023-04-15T05:58:36.979Z,6.98
2023-04-15T06:02:39.628Z,7.04
2023-04-15T06:06:42.590Z,6.94
2023-04-15T06:10:46.635Z,7.07
2023-04-15T06:14:49.162Z,7.17
2023-04-15T06:18:51.658Z,7.10
2023-04-15T06:22:54.206Z,7.19
2023-04-15T06:26:58.164Z,7.25
2023-04-15T06:31:01.440Z,7.33
2023-04-15T06:35:04.193Z,7.21
2023-04-15T06:39:06.695Z,7.31
2023-04-15T06:43:10.667Z,7.29
2023-04-15T06:47:14.672Z,7.23
2023-04-15T06:51:17.319Z,7.28
2023-04-15T06:55:19.938Z,7.24
2023-04-15T06:59:24.096Z,7.26
2023-04-15T07:03:27.076Z,7.40
2023-04-15T07:07:29.567Z,7.39
2023-04-15T07:11:32.147Z,7.32
2023-04-15T07:15:36.104Z,7.27
2023-04-15T07:19:39.065Z,7.29
2023-04-15T07:23:41.629Z,7.24
2023-04-15T07:27:44.159Z,7.19
2023-04-15T07:31:47.974Z,7.25
2023-04-15T07:35:50.539Z,7.25
2023-04-15T07:39:53.481Z,7.20
2023-04-15T07:43:55.975Z,7.28
2023-04-15T07:47:59.894Z,7.41
2023-04-15T07:52:02.448Z,7.45
2023-04-15T07:56:05.622Z,7.61
2023-04-15T08:00:09.639Z,7.71
2023-04-15T08:04:19.429Z,7.80
2023-04-15T08:08:22.210Z,7.81
2023-04-15T08:12:25.054Z,7.81
2023-04-15T08:16:28.551Z,7.94
2023-04-15T08:20:32.524Z,7.87
2023-04-15T08:24:35.183Z,7.78
2023-04-15T08:28:40.447Z,7.88
2023-04-15T08:32:43.549Z,8.15
2023-04-15T08:36:47.459Z,8.04
2023-04-15T08:40:50.019Z,7.92
2023-04-15T08:44:53.927Z,7.88
2023-04-15T08:48:57.585Z,8.00
2023-04-15T08:53:01.854Z,8.16
2023-04-15T08:57:04.582Z,8.22
2023-04-15T09:01:07.172Z,8.33
2023-04-15T09:05:10.095Z,8.47
2023-04-15T09:09:15.205Z,8.43
2023-04-15T09:13:17.866Z,8.35
2023-04-15T09:17:21.682Z,8.29
2023-04-15T09:21:25.455Z,7.99
2023-04-15T09:25:32.170Z,8.23
2023-04-15T09:29:36.946Z,8.35
2023-04-15T09:33:55.405Z,8.40
2023-04-15T09:38:04.348Z,8.46
2023-04-15T09:42:08.782Z,8.56
2023-04-15T09:46:11.439Z,8.58
2023-04-15T09:50:14.625Z,8.61
2023-04-15T09:54:20.320Z,8.75
2023-04-15T09:58:26.376Z,8.75
2023-04-15T10:02:31.312Z,8.85
2023-04-15T10:06:35.667Z,8.81
2023-04-15T10:10:38.926Z,8.89
2023-04-15T10:14:44.321Z,8.92
2023-04-15T10:18:48.364Z,8.76
2023-04-15T10:22:52.437Z,8.54
2023-04-15T10:26:55.793Z,8.68
2023-04-15T10:31:00.238Z,8.64
2023-04-15T10:35:04.225Z,8.41
2023-04-15T10:39:42.816Z,8.29
2023-04-15T10:43:57.810Z,8.26
2023-04-15T10:48:03.973Z,8.28
2023-04-15T10:52:09.384Z,8.43
2023-04-15T10:56:13.271Z,8.32
2023-04-15T11:00:17.817Z,8.36
2023-04-15T11:04:55.915Z,8.27
2023-04-15T11:09:02.795Z,8.21
2023-04-15T11:13:17.643Z,8.69
2023-04-15T11:17:29.509Z,8.45
2023-04-15T11:21:32.103Z,8.63
2023-04-15T11:25:37.199Z,8.56
2023-04-15T11:29:41.379Z,8.69
2023-04-15T11:33:48.746Z,8.47
2023-04-15T11:37:51.413Z,8.59
2023-04-15T11:41:53.990Z,8.63
2023-04-15T11:45:59.923Z,8.61
2023-04-15T11:50:16.427Z,8.86
2023-04-15T11:54:20.391Z,8.83
2023-04-15T11:58:24.803Z,8.97
2023-04-15T12:02:33.270Z,8.97
2023-04-15T12:06:37.343Z,8.60
2023-04-15T12:10:39.881Z,8.64
2023-04-15T12:14:42.672Z,8.78
2023-04-15T12:18:48.276Z,8.92
2023-04-15T12:22:50.929Z,8.91
2023-04-15T12:26:55.884Z,9.12
2023-04-15T12:30:59.373Z,8.93
2023-04-15T12:35:03.130Z,9.06
2023-04-15T12:39:06.189Z,9.18
2023-04-15T12:43:08.809Z,9.12
2023-04-15T12:47:12.272Z,9.24
2023-04-15T12:51:16.217Z,9.49
2023-04-15T12:55:18.747Z,9.39
2023-04-15T12:59:21.614Z,9.64
2023-04-15T13:03:24.297Z,9.59
2023-04-15T13:07:28.233Z,9.81
2023-04-15T13:11:33.579Z,9.78
2023-04-15T13:15:36.465Z,9.81
2023-04-15T13:19:39.944Z,9.82
2023-04-15T13:23:43.754Z,10.02
2023-04-15T13:27:46.601Z,10.01
2023-04-15T13:31:49.199Z,10.01
2023-04-15T13:35:51.844Z,9.88
2023-04-15T13:39:55.950Z,9.94
2023-04-15T13:43:58.534Z,10.09
2023-04-15T13:48:01.369Z,9.93
2023-04-15T13:52:04.009Z,10.08
2023-04-15T13:56:09.063Z,10.14
2023-04-15T14:00:12.962Z,10.27
2023-04-15T14:04:15.728Z,10.07
2023-04-15T14:08:18.316Z,10.07
2023-04-15T14:12:22.171Z,10.11
2023-04-15T14:16:24.673Z,10.07
2023-04-15T14:20:27.257Z,9.97
2023-04-15T14:24:29.892Z,10.07
2023-04-15T14:28:33.728Z,9.97
2023-04-15T14:32:36.368Z,10.15
2023-04-15T14:36:40.347Z,10.11
2023-04-15T14:40:43.207Z,10.32
2023-04-15T14:44:47.188Z,10.33
2023-04-15T14:48:50.270Z,10.40
2023-04-15T14:52:52.839Z,10.58
2023-04-15T14:56:55.820Z,10.34
2023-04-15T15:00:59.838Z,10.27
2023-04-15T15:05:02.759Z,10.40
2023-04-15T15:09:05.673Z,10.44
2023-04-15T15:13:09.850Z,10.14
2023-04-15T15:17:14.046Z,10.18
2023-04-15T15:21:16.548Z,10.19
2023-04-15T15:25:19.174Z,10.30
2023-04-15T15:29:21.732Z,10.31
2023-04-15T15:33:25.633Z,10.39
2023-04-15T15:37:28.670Z,10.39
2023-04-15T15:41:33.255Z,10.52
2023-04-15T15:45:36.337Z,10.59
2023-04-15T15:49:41.044Z,10.53
2023-04-15T15:53:44.675Z,10.53
2023-04-15T15:57:47.189Z,10.79
2023-04-15T16:01:50.499Z,10.80
2023-04-15T16:05:54.388Z,10.72
2023-04-15T16:09:56.917Z,10.80
2023-04-15T16:13:59.474Z,10.72
2023-04-15T16:18:02.057Z,10.85
2023-04-15T16:22:06.017Z,10.79
2023-04-15T16:26:08.620Z,10.76
2023-04-15T16:30:12.651Z,10.71
2023-04-15T16:34:15.857Z,10.61
2023-04-15T16:38:19.725Z,10.57
2023-04-15T16:42:22.296Z,10.66
2023-04-15T16:46:24.929Z,10.77
2023-04-15T16:50:27.469Z,10.87
2023-04-15T16:54:33.451Z,10.91
2023-04-15T16:58:35.989Z,10.88
2023-04-15T17:02:38.800Z,10.72
2023-04-15T17:06:41.485Z,10.58
2023-04-15T17:10:45.370Z,10.61
2023-04-15T17:14:47.872Z,10.56
2023-04-15T17:18:51.139Z,10.60
2023-04-15T17:22:53.693Z,10.67
2023-04-15T17:26:57.678Z,10.56
2023-04-15T17:31:00.434Z,10.70
2023-04-15T17:35:05.990Z,10.74
2023-04-15T17:39:08.553Z,10.85
2023-04-15T17:43:12.406Z,10.93
2023-04-15T17:47:15.063Z,10.96
2023-04-15T17:51:17.558Z,10.99
2023-04-15T17:55:22.053Z,10.97
2023-04-15T17:59:26.259Z,10.97
2023-04-15T18:03:28.984Z,10.86
2023-04-15T18:07:31.654Z,10.87
2023-04-15T18:11:34.231Z,10.83
2023-04-15T18:15:38.141Z,10.79
2023-04-15T18:19:40.679Z,10.71
2023-04-15T18:23:43.181Z,10.70
2023-04-15T18:27:45.759Z,10.71
2023-04-15T18:31:49.700Z,10.80
2023-04-15T18:35:52.288Z,10.73
2023-04-15T18:39:55.066Z,10.61
2023-04-15T18:43:57.552Z,10.75
2023-04-15T18:48:01.472Z,10.80
2023-04-15T18:52:04.287Z,10.86
2023-04-15T18:56:07.298Z,10.96
2023-04-15T19:00:11.219Z,10.88
2023-04-15T19:04:15.282Z,10.97
2023-04-15T19:08:17.873Z,10.99
2023-04-15T19:12:20.382Z,11.04
2023-04-15T19:16:22.900Z,11.10
2023-04-15T19:20:26.860Z,11.08
2023-04-15T19:24:31.076Z,11.02
2023-04-15T19:28:35.433Z,11.06
2023-04-15T19:32:37.979Z,11.07
2023-04-15T19:36:41.901Z,11.10
2023-04-15T19:40:44.457Z,11.07
2023-04-15T19:44:46.959Z,11.12
2023-04-15T19:48:49.553Z,11.08
2023-04-15T19:52:53.440Z,11.01
2023-04-15T19:56:56.424Z,10.95
2023-04-15T20:00:59.115Z,10.93
2023-04-15T20:05:01.657Z,10.95
2023-04-15T20:09:06.450Z,10.99
2023-04-15T20:13:09.858Z,10.96
2023-04-15T20:17:12.394Z,11.00
2023-04-15T20:21:14.963Z,11.04
2023-04-15T20:25:18.884Z,11.04
2023-04-15T20:29:21.432Z,11.14
2023-04-15T20:33:25.619Z,10.95
2023-04-15T20:37:29.508Z,10.98
2023-04-15T20:41:33.452Z,11.03
2023-04-15T20:45:36.520Z,10.98
2023-04-15T20:49:40.769Z,11.01
2023-04-15T20:53:43.288Z,11.02
2023-04-15T20:57:48.354Z,11.00
